FMEP Airport Information

Runway Information
Runway 15 Length 4965 ft width 98 ft
Elevation 59 ft Threshold 0 ft Heading 129
Runway 33 Length 4965 ft Width 98 ft
Elevation 41 ft Threshold 0 ft Heading 309
Airport Frequencies
Type INFO Name PIERREFOND Frequency 122.4 MHZ
Airport Navaids
Type VOR-DME Name St Pierre Pierrefonds Frequency 115900 KHZ
Type NDB Name Pierrefonds/Etang Frequency 352 KHZ
Airport Weather Information & NOTAM
ADDS - METARS form results

(1013 UTC 24 January 2019)
Data provider http://aviationweather.gov/metar/data/
 
METAR text: FMEP 241000Z AUTO 14012KT 9999 BKN052/// OVC084/// ///TCU 31/22 Q1012 BECMG 24008KT SCT026
Conditions at: FMEP (ST. PIERRE/FONDS, FR) observed 1000 UTC 24 January 2019
Temperature: 31.0°C (88°F)
Dewpoint: 22.0°C (72°F) [RH = 59%]
Pressure (altimeter): 29.88 inches Hg (1012.0 mb)
Winds: from the SE (140 degrees) at 14 MPH (12 knots; 6.2 m/s)
Visibility: 6 or more miles (10+ km)
Ceiling: 5200 feet AGL
Clouds: broken clouds at 5200 feet AGL
overcast cloud deck at 8400 feet AGL
Weather: no significant weather observed at this time

METAR text: FMEP 240930Z AUTO 16010KT 9999 BKN050/// BKN078/// BKN180/// ///TCU 32/23 Q1012 BECMG 24008KT SCT026
Conditions at: FMEP (ST. PIERRE/FONDS, FR) observed 0930 UTC 24 January 2019
Temperature: 32.0°C (90°F)
Dewpoint: 23.0°C (73°F) [RH = 59%]
Pressure (altimeter): 29.88 inches Hg (1012.0 mb)
Winds: from the SSE (160 degrees) at 12 MPH (10 knots; 5.1 m/s)
Visibility: 6 or more miles (10+ km)
Ceiling: 5000 feet AGL
Clouds: broken clouds at 5000 feet AGL
broken clouds at 7800 feet AGL
broken clouds at 18000 feet AGL
Weather: no significant weather observed at this time

Forecast for: FMEP (ST. PIERRE/FONDS, FR)
Text: TAF FMEP 240800Z 2409/2418 24008KT 9999 SCT026
Forecast period: 0900 to 1800 UTC 24 January 2019
Forecast type: FROM: standard forecast or significant change
Winds: from the WSW (240 degrees) at 9 MPH (8 knots; 4.1 m/s)
Visibility: 6 or more miles 10+ km)
Ceiling: at least 12,000 feet AGL
Clouds: scattered clouds at 2600 feet AGL
Weather: no significant weather forecast for this period